createdAt,value
2022-09-20T00:00:14.640Z,0
2022-09-20T00:01:30.931Z,0
2022-09-20T00:02:47.242Z,0
2022-09-20T00:04:03.532Z,0
2022-09-20T00:05:19.812Z,0
2022-09-20T00:07:51.438Z,0
2022-09-20T00:09:07.720Z,0
2022-09-20T00:11:40.311Z,0
2022-09-20T00:12:56.600Z,0
2022-09-20T00:14:12.903Z,0
2022-09-20T00:15:29.202Z,0
2022-09-20T00:16:45.486Z,0
2022-09-20T00:18:01.776Z,0
2022-09-20T00:19:18.074Z,0
2022-09-20T00:20:34.370Z,0
2022-09-20T00:21:50.666Z,0
2022-09-20T00:23:05.982Z,0
2022-09-20T00:25:38.576Z,0
2022-09-20T00:26:53.884Z,0
2022-09-20T00:28:10.171Z,0
2022-09-20T00:29:26.464Z,0
2022-09-20T00:30:42.768Z,0
2022-09-20T00:31:59.060Z,0
2022-09-20T00:33:15.357Z,0
2022-09-20T00:34:31.653Z,0
2022-09-20T00:35:47.955Z,0
2022-09-20T00:37:04.232Z,0
2022-09-20T00:38:19.552Z,0
2022-09-20T00:40:51.163Z,0
2022-09-20T00:43:23.759Z,0
2022-09-20T00:44:40.044Z,0
2022-09-20T00:45:56.339Z,0
2022-09-20T00:47:12.627Z,0
2022-09-20T00:48:28.940Z,0
2022-09-20T00:49:45.220Z,0
2022-09-20T00:51:01.520Z,0
2022-09-20T00:52:17.814Z,0
2022-09-20T00:53:34.116Z,0
2022-09-20T00:56:06.695Z,0
2022-09-20T00:58:38.320Z,0
2022-09-20T00:59:53.623Z,0
2022-09-20T01:01:08.944Z,0
2022-09-20T01:02:25.229Z,0
2022-09-20T01:03:41.527Z,0
2022-09-20T01:04:57.817Z,0
2022-09-20T01:06:14.105Z,0
2022-09-20T01:07:30.405Z,0
2022-09-20T01:08:46.699Z,0
2022-09-20T01:11:19.289Z,0
2022-09-20T01:12:35.588Z,0
2022-09-20T01:13:51.876Z,0
2022-09-20T01:17:40.774Z,0
2022-09-20T01:18:57.057Z,0
2022-09-20T01:20:12.365Z,0
2022-09-20T01:21:28.667Z,0
2022-09-20T01:22:44.957Z,0
2022-09-20T01:24:01.262Z,0
2022-09-20T01:25:17.553Z,0
2022-09-20T01:26:33.854Z,0
2022-09-20T01:27:50.136Z,0
2022-09-20T01:29:06.440Z,0
2022-09-20T01:30:22.726Z,0
2022-09-20T01:31:39.015Z,0
2022-09-20T01:32:55.310Z,0
2022-09-20T01:34:11.608Z,0
2022-09-20T01:35:27.916Z,0
2022-09-20T01:36:43.226Z,0
2022-09-20T01:37:59.521Z,0
2022-09-20T01:39:15.813Z,0
2022-09-20T01:40:32.091Z,0
2022-09-20T01:41:48.386Z,0
2022-09-20T01:44:20.985Z,0
2022-09-20T01:45:36.307Z,0
2022-09-20T01:46:51.614Z,0
2022-09-20T01:48:07.912Z,0
2022-09-20T01:49:24.200Z,0
2022-09-20T01:50:40.486Z,0
2022-09-20T01:51:56.780Z,0
2022-09-20T01:53:13.092Z,0
2022-09-20T01:54:29.383Z,0
2022-09-20T01:55:45.665Z,0
2022-09-20T01:57:01.969Z,0
2022-09-20T01:59:34.561Z,0
2022-09-20T02:00:50.843Z,0
2022-09-20T02:02:07.139Z,0
2022-09-20T02:03:22.448Z,0
2022-09-20T02:04:38.760Z,0
2022-09-20T02:05:55.041Z,0
2022-09-20T02:07:11.349Z,0
2022-09-20T02:08:27.638Z,0
2022-09-20T02:09:43.938Z,0
2022-09-20T02:11:00.231Z,0
2022-09-20T02:12:16.516Z,0
2022-09-20T02:13:31.835Z,0
2022-09-20T02:14:47.154Z,0
2022-09-20T02:17:19.743Z,0
2022-09-20T02:18:36.038Z,0
2022-09-20T02:19:52.331Z,0
2022-09-20T02:21:08.614Z,0
2022-09-20T02:22:24.921Z,0
2022-09-20T02:23:41.214Z,0
2022-09-20T02:24:57.505Z,0
2022-09-20T02:26:13.805Z,0
2022-09-20T02:27:30.083Z,0
2022-09-20T02:28:46.390Z,0
2022-09-20T02:30:02.687Z,0
2022-09-20T02:31:17.988Z,0
2022-09-20T02:32:34.275Z,0
2022-09-20T02:33:50.576Z,0
2022-09-20T02:35:06.876Z,0
2022-09-20T02:36:23.165Z,0
2022-09-20T02:37:39.465Z,0
2022-09-20T02:38:55.751Z,0
2022-09-20T02:40:12.052Z,0
2022-09-20T02:41:28.352Z,0
2022-09-20T02:42:44.644Z,0
2022-09-20T02:44:00.945Z,0
2022-09-20T02:45:17.223Z,0
2022-09-20T02:47:49.816Z,0
2022-09-20T02:49:06.117Z,0
2022-09-20T02:50:22.411Z,0
2022-09-20T02:51:37.727Z,0
2022-09-20T02:54:10.306Z,0
2022-09-20T02:55:26.608Z,0
2022-09-20T02:56:42.894Z,0
2022-09-20T02:57:59.193Z,0
2022-09-20T03:00:31.793Z,0
2022-09-20T03:01:48.081Z,0
2022-09-20T03:03:03.384Z,0
2022-09-20T03:04:18.707Z,0
2022-09-20T03:05:35.001Z,0
2022-09-20T03:06:51.295Z,0
2022-09-20T03:08:07.583Z,0
2022-09-20T03:09:23.885Z,0
2022-09-20T03:10:40.178Z,0
2022-09-20T03:13:12.776Z,0
2022-09-20T03:14:29.051Z,0
2022-09-20T03:15:45.364Z,0
2022-09-20T03:17:01.648Z,0
2022-09-20T03:18:17.947Z,0
2022-09-20T03:19:34.239Z,0
2022-09-20T03:20:50.526Z,0
2022-09-20T03:22:05.837Z,0
2022-09-20T03:23:22.141Z,0
2022-09-20T03:24:38.439Z,0
2022-09-20T03:25:54.727Z,0
2022-09-20T03:28:27.325Z,0
2022-09-20T03:29:42.636Z,0
2022-09-20T03:30:58.921Z,0
2022-09-20T03:32:14.228Z,0
2022-09-20T03:33:30.532Z,0
2022-09-20T03:34:46.829Z,0
2022-09-20T03:36:03.123Z,0
2022-09-20T03:37:19.408Z,0
2022-09-20T03:38:35.713Z,0
2022-09-20T03:39:51.999Z,0
2022-09-20T03:41:08.307Z,0
2022-09-20T03:42:24.587Z,0
2022-09-20T03:43:40.877Z,0
2022-09-20T03:44:57.189Z,0
2022-09-20T03:46:12.488Z,0
2022-09-20T03:47:27.820Z,0
2022-09-20T03:48:44.105Z,0
2022-09-20T03:50:00.406Z,0
2022-09-20T03:51:16.695Z,0
2022-09-20T03:52:32.994Z,0
2022-09-20T03:53:49.277Z,0
2022-09-20T03:55:05.571Z,0
2022-09-20T03:56:21.878Z,0
2022-09-20T03:57:38.168Z,0
2022-09-20T03:58:54.450Z,0
2022-09-20T04:00:09.786Z,0
2022-09-20T04:01:25.086Z,0
2022-09-20T04:02:41.376Z,0
2022-09-20T04:03:57.676Z,0
2022-09-20T04:05:13.969Z,0
2022-09-20T04:06:30.271Z,0
2022-09-20T04:09:02.851Z,0
2022-09-20T04:10:19.154Z,0
2022-09-20T04:11:35.451Z,0
2022-09-20T04:12:51.727Z,0
2022-09-20T04:14:08.032Z,0
2022-09-20T04:16:40.624Z,0
2022-09-20T04:17:56.918Z,0
2022-09-20T04:19:12.230Z,0
2022-09-20T04:20:27.543Z,0
2022-09-20T04:21:43.840Z,0
2022-09-20T04:23:00.131Z,0
2022-09-20T04:24:16.421Z,0
2022-09-20T04:25:32.663Z,0
2022-09-20T04:26:48.928Z,0
2022-09-20T04:28:05.151Z,0
2022-09-20T04:29:21.410Z,0
2022-09-20T04:30:37.646Z,0
2022-09-20T04:31:53.901Z,0
2022-09-20T04:33:09.154Z,0
2022-09-20T04:34:24.405Z,0
2022-09-20T04:35:40.644Z,0
2022-09-20T04:36:56.891Z,0
2022-09-20T04:38:13.132Z,0
2022-09-20T04:39:29.378Z,0
2022-09-20T04:40:45.622Z,0
2022-09-20T04:43:17.100Z,0
2022-09-20T04:44:33.345Z,0
2022-09-20T04:45:48.617Z,0
2022-09-20T04:47:04.861Z,0
2022-09-20T04:48:21.098Z,0
2022-09-20T04:49:37.334Z,0
2022-09-20T04:50:53.563Z,0
2022-09-20T04:52:09.803Z,0
2022-09-20T04:53:26.050Z,0
2022-09-20T04:54:42.304Z,5
2022-09-20T04:55:58.536Z,5
2022-09-20T04:57:14.773Z,5
2022-09-20T04:58:31.027Z,5
2022-09-20T04:59:47.262Z,5
2022-09-20T05:02:19.729Z,5
2022-09-20T05:03:34.996Z,5
2022-09-20T05:04:51.225Z,5
2022-09-20T05:06:07.477Z,5
2022-09-20T05:07:23.719Z,5
2022-09-20T05:08:39.961Z,5
2022-09-20T05:09:56.192Z,5
2022-09-20T05:11:12.449Z,5
2022-09-20T05:12:28.684Z,5
2022-09-20T05:13:44.912Z,11
2022-09-20T05:15:01.157Z,5
2022-09-20T05:16:17.399Z,11
2022-09-20T05:18:49.887Z,11
2022-09-20T05:20:05.139Z,11
2022-09-20T05:21:21.386Z,11
2022-09-20T05:22:37.622Z,11
2022-09-20T05:23:53.857Z,11
2022-09-20T05:25:10.094Z,11
2022-09-20T05:26:26.339Z,16
2022-09-20T05:27:42.581Z,16
2022-09-20T05:28:58.819Z,22
2022-09-20T05:30:15.059Z,22
2022-09-20T05:31:31.297Z,28
2022-09-20T05:32:47.537Z,39
2022-09-20T05:34:03.781Z,39
2022-09-20T05:35:20.023Z,39
2022-09-20T05:37:51.526Z,33
2022-09-20T05:39:07.776Z,45
2022-09-20T05:40:24.004Z,39
2022-09-20T05:41:40.250Z,33
2022-09-20T05:42:56.477Z,33
2022-09-20T05:45:28.971Z,33
2022-09-20T05:46:45.206Z,33
2022-09-20T05:48:01.449Z,33
2022-09-20T05:49:17.697Z,33
2022-09-20T05:50:33.937Z,33
2022-09-20T05:51:50.164Z,39
2022-09-20T05:53:05.434Z,45
2022-09-20T05:54:21.673Z,39
2022-09-20T05:55:37.919Z,39
2022-09-20T05:56:54.139Z,33
2022-09-20T05:58:10.385Z,33
2022-09-20T05:59:26.636Z,39
2022-09-20T06:00:42.881Z,45
2022-09-20T06:01:59.113Z,45
2022-09-20T06:03:15.343Z,45
2022-09-20T06:04:31.595Z,45
2022-09-20T06:05:47.841Z,50
2022-09-20T06:07:04.074Z,61
2022-09-20T06:08:20.314Z,45
2022-09-20T06:10:51.819Z,50
2022-09-20T06:12:08.059Z,61
2022-09-20T06:13:24.302Z,61
2022-09-20T06:14:40.542Z,78
2022-09-20T06:15:56.763Z,73
2022-09-20T06:17:13.018Z,50
2022-09-20T06:18:29.259Z,45
2022-09-20T06:19:45.499Z,45
2022-09-20T06:21:01.726Z,33
2022-09-20T06:22:17.983Z,33
2022-09-20T06:23:34.223Z,33
2022-09-20T06:26:06.694Z,39
2022-09-20T06:27:21.943Z,39
2022-09-20T06:28:38.185Z,50
2022-09-20T06:29:54.427Z,56
2022-09-20T06:31:10.669Z,67
2022-09-20T06:32:26.922Z,90
2022-09-20T06:33:43.155Z,101
2022-09-20T06:34:59.390Z,106
2022-09-20T06:36:15.634Z,123
2022-09-20T06:37:31.880Z,129
2022-09-20T06:38:48.110Z,146
2022-09-20T06:40:04.355Z,163
2022-09-20T06:41:20.601Z,135
2022-09-20T06:42:36.845Z,140
2022-09-20T06:43:52.098Z,157
2022-09-20T06:45:08.340Z,163
2022-09-20T06:46:24.576Z,174
2022-09-20T06:47:40.812Z,213
2022-09-20T06:48:57.053Z,213
2022-09-20T06:50:13.300Z,208
2022-09-20T06:51:29.532Z,213
2022-09-20T06:52:45.774Z,208
2022-09-20T06:54:02.022Z,219
2022-09-20T06:55:18.249Z,247
2022-09-20T06:56:34.502Z,225
2022-09-20T06:57:50.746Z,180
2022-09-20T06:59:06.969Z,191
2022-09-20T07:00:23.222Z,185
2022-09-20T07:01:39.450Z,208
2022-09-20T07:02:55.707Z,196
2022-09-20T07:04:10.945Z,185
2022-09-20T07:05:27.190Z,208
2022-09-20T07:06:43.442Z,174
2022-09-20T07:07:59.668Z,174
2022-09-20T07:09:15.918Z,163
2022-09-20T07:10:32.157Z,174
2022-09-20T07:11:48.391Z,230
2022-09-20T07:13:04.627Z,230
2022-09-20T07:14:20.866Z,219
2022-09-20T07:15:37.110Z,208
2022-09-20T07:16:53.352Z,230
2022-09-20T07:19:25.841Z,213
2022-09-20T07:20:41.081Z,180
2022-09-20T07:21:57.335Z,174
2022-09-20T07:23:13.566Z,202
2022-09-20T07:24:29.802Z,185
2022-09-20T07:27:02.293Z,157
2022-09-20T07:28:18.523Z,129
2022-09-20T07:29:34.774Z,140
2022-09-20T07:30:51.010Z,163
2022-09-20T07:32:07.258Z,151
2022-09-20T07:34:39.739Z,146
2022-09-20T07:35:54.998Z,118
2022-09-20T07:37:10.242Z,112
2022-09-20T07:38:26.486Z,140
2022-09-20T07:39:42.727Z,163
2022-09-20T07:40:58.979Z,140
2022-09-20T07:42:15.218Z,123
2022-09-20T07:43:31.442Z,163
2022-09-20T07:44:47.699Z,174
2022-09-20T07:46:03.925Z,191
2022-09-20T07:47:20.180Z,202
2022-09-20T07:48:36.416Z,196
2022-09-20T07:49:52.643Z,163
2022-09-20T07:51:07.906Z,180
2022-09-20T07:52:23.175Z,196
2022-09-20T07:53:39.421Z,196
2022-09-20T07:54:55.656Z,135
2022-09-20T07:57:28.130Z,106
2022-09-20T08:00:00.604Z,174
2022-09-20T08:02:33.092Z,174
2022-09-20T08:05:05.563Z,123
2022-09-20T08:06:21.809Z,112
2022-09-20T08:07:38.044Z,112
2022-09-20T08:08:53.300Z,123
2022-09-20T08:10:09.559Z,180
2022-09-20T08:11:24.806Z,196
2022-09-20T08:12:41.052Z,213
2022-09-20T08:13:56.300Z,196
2022-09-20T08:15:12.550Z,180
2022-09-20T08:16:28.779Z,185
2022-09-20T08:17:45.031Z,146
2022-09-20T08:19:01.260Z,135
2022-09-20T08:20:17.520Z,213
2022-09-20T08:21:33.754Z,309
2022-09-20T08:22:49.986Z,253
2022-09-20T08:24:06.221Z,202
2022-09-20T08:25:22.478Z,191
2022-09-20T08:27:53.965Z,196
2022-09-20T08:29:09.235Z,219
2022-09-20T08:30:25.478Z,202
2022-09-20T08:31:41.712Z,185
2022-09-20T08:32:57.956Z,213
2022-09-20T08:35:30.434Z,247
2022-09-20T08:36:45.702Z,247
2022-09-20T08:38:00.952Z,196
2022-09-20T08:39:17.184Z,196
2022-09-20T08:40:33.424Z,191
2022-09-20T08:41:49.679Z,168
2022-09-20T08:43:05.910Z,163
2022-09-20T08:44:22.152Z,196
2022-09-20T08:45:38.381Z,281
2022-09-20T08:46:54.623Z,303
2022-09-20T08:48:10.876Z,286
2022-09-20T08:50:43.351Z,281
2022-09-20T08:53:15.832Z,365
2022-09-20T08:54:31.088Z,326
2022-09-20T08:55:47.326Z,264
2022-09-20T08:58:19.804Z,270
2022-09-20T09:00:52.281Z,309
2022-09-20T09:02:07.543Z,275
2022-09-20T09:03:23.795Z,281
2022-09-20T09:04:40.033Z,315
2022-09-20T09:05:56.269Z,298
2022-09-20T09:07:12.501Z,258
2022-09-20T09:08:28.751Z,270
2022-09-20T09:09:44.991Z,247
2022-09-20T09:11:01.237Z,219
2022-09-20T09:13:33.721Z,225
2022-09-20T09:14:49.957Z,174
2022-09-20T09:16:06.200Z,129
2022-09-20T09:17:22.429Z,123
2022-09-20T09:18:37.690Z,174
2022-09-20T09:19:53.932Z,315
2022-09-20T09:21:10.167Z,399
2022-09-20T09:22:26.404Z,371
2022-09-20T09:23:42.657Z,365
2022-09-20T09:24:58.886Z,337
2022-09-20T09:26:15.123Z,292
2022-09-20T09:27:30.389Z,281
2022-09-20T09:28:46.624Z,326
2022-09-20T09:30:01.879Z,405
2022-09-20T09:31:18.134Z,433
2022-09-20T09:32:34.375Z,393
2022-09-20T09:33:50.601Z,286
2022-09-20T09:35:06.841Z,303
2022-09-20T09:36:23.083Z,331
2022-09-20T09:37:39.322Z,360
2022-09-20T09:38:55.567Z,360
2022-09-20T09:41:28.045Z,365
2022-09-20T09:44:00.530Z,343
2022-09-20T09:45:15.794Z,303
2022-09-20T09:46:31.057Z,309
2022-09-20T09:47:47.294Z,275
2022-09-20T09:49:03.530Z,348
2022-09-20T09:51:36.010Z,489
2022-09-20T09:52:52.252Z,388
2022-09-20T09:54:08.489Z,326
2022-09-20T09:55:24.736Z,337
2022-09-20T09:56:40.973Z,343
2022-09-20T09:57:57.218Z,371
2022-09-20T09:59:13.459Z,348
2022-09-20T10:00:29.699Z,315
2022-09-20T10:01:45.926Z,303
2022-09-20T10:04:17.428Z,281
2022-09-20T10:05:33.672Z,281
2022-09-20T10:06:49.914Z,298
2022-09-20T10:08:06.139Z,303
2022-09-20T10:09:22.386Z,315
2022-09-20T10:10:38.626Z,326
2022-09-20T10:11:54.878Z,360
2022-09-20T10:14:27.359Z,416
2022-09-20T10:15:43.589Z,461
2022-09-20T10:16:59.825Z,360
2022-09-20T10:19:32.312Z,286
2022-09-20T10:22:04.793Z,253
2022-09-20T10:23:20.043Z,241
2022-09-20T10:24:36.292Z,264
2022-09-20T10:25:52.536Z,337
2022-09-20T10:27:08.775Z,326
2022-09-20T10:28:25.001Z,348
2022-09-20T10:29:41.244Z,309
2022-09-20T10:30:57.496Z,264
2022-09-20T10:32:13.725Z,253
2022-09-20T10:33:29.975Z,281
2022-09-20T10:34:46.214Z,343
2022-09-20T10:36:02.456Z,371
2022-09-20T10:37:18.687Z,382
2022-09-20T10:38:34.935Z,399
2022-09-20T10:39:51.174Z,444
2022-09-20T10:41:06.422Z,410
2022-09-20T10:42:22.667Z,382
2022-09-20T10:43:38.906Z,438
2022-09-20T10:44:55.139Z,371
2022-09-20T10:46:10.403Z,360
2022-09-20T10:47:26.637Z,354
2022-09-20T10:48:42.896Z,331
2022-09-20T10:49:58.135Z,298
2022-09-20T10:52:30.630Z,286
2022-09-20T10:53:46.856Z,326
2022-09-20T10:55:03.093Z,326
2022-09-20T10:57:35.590Z,270
2022-09-20T11:00:08.063Z,264
2022-09-20T11:01:24.299Z,298
2022-09-20T11:02:40.543Z,292
2022-09-20T11:03:55.806Z,258
2022-09-20T11:05:12.040Z,247
2022-09-20T11:07:43.547Z,236
2022-09-20T11:08:59.792Z,241
2022-09-20T11:10:16.018Z,225
2022-09-20T11:11:32.264Z,247
2022-09-20T11:12:48.511Z,264
2022-09-20T11:14:04.752Z,247
2022-09-20T11:15:20.981Z,258
2022-09-20T11:16:37.221Z,258
2022-09-20T11:17:53.472Z,270
2022-09-20T11:19:09.694Z,258
2022-09-20T11:20:25.948Z,236
2022-09-20T11:21:42.189Z,219
2022-09-20T11:22:57.430Z,225
2022-09-20T11:24:13.682Z,219
2022-09-20T11:25:29.920Z,196
2022-09-20T11:26:46.168Z,202
2022-09-20T11:28:02.395Z,213
2022-09-20T11:29:18.647Z,247
2022-09-20T11:30:34.876Z,270
2022-09-20T11:31:50.154Z,326
2022-09-20T11:33:05.403Z,365
2022-09-20T11:34:21.634Z,365
2022-09-20T11:35:37.885Z,382
2022-09-20T11:36:54.113Z,331
2022-09-20T11:38:10.363Z,354
2022-09-20T11:39:26.604Z,320
2022-09-20T11:40:42.834Z,264
2022-09-20T11:41:59.084Z,202
2022-09-20T11:43:15.331Z,180
2022-09-20T11:44:31.561Z,185
2022-09-20T11:45:46.815Z,202
2022-09-20T11:47:02.079Z,241
2022-09-20T11:48:18.326Z,281
2022-09-20T11:49:34.549Z,309
2022-09-20T11:50:50.791Z,303
2022-09-20T11:52:07.039Z,298
2022-09-20T11:53:23.279Z,337
2022-09-20T11:54:39.524Z,382
2022-09-20T11:55:55.757Z,393
2022-09-20T11:57:11.995Z,343
2022-09-20T11:58:28.248Z,281
2022-09-20T11:59:44.473Z,253
2022-09-20T12:01:00.712Z,230
2022-09-20T12:02:16.958Z,230
2022-09-20T12:03:32.210Z,253
2022-09-20T12:04:48.460Z,286
2022-09-20T12:06:04.688Z,298
2022-09-20T12:07:20.938Z,298
2022-09-20T12:08:37.186Z,236
2022-09-20T12:11:09.663Z,157
2022-09-20T12:12:25.901Z,174
2022-09-20T12:13:42.133Z,174
2022-09-20T12:14:58.385Z,174
2022-09-20T12:16:14.611Z,163
2022-09-20T12:17:30.857Z,151
2022-09-20T12:18:47.098Z,146
2022-09-20T12:20:02.360Z,151
2022-09-20T12:21:18.587Z,151
2022-09-20T12:23:51.068Z,163
2022-09-20T12:25:07.314Z,163
2022-09-20T12:26:23.561Z,168
2022-09-20T12:27:39.791Z,174
2022-09-20T12:28:56.044Z,180
2022-09-20T12:31:28.520Z,191
2022-09-20T12:32:43.772Z,202
2022-09-20T12:33:59.033Z,213
2022-09-20T12:35:15.267Z,247
2022-09-20T12:36:31.510Z,303
2022-09-20T12:39:03.985Z,382
2022-09-20T12:40:20.233Z,421
2022-09-20T12:41:36.467Z,376
2022-09-20T12:42:52.706Z,326
2022-09-20T12:44:08.948Z,309
2022-09-20T12:46:41.437Z,286
2022-09-20T12:47:57.679Z,264
2022-09-20T12:49:12.948Z,270
2022-09-20T12:50:28.185Z,236
2022-09-20T12:51:44.439Z,202
2022-09-20T12:54:16.916Z,196
2022-09-20T12:55:33.151Z,191
2022-09-20T12:56:49.389Z,202
2022-09-20T12:58:05.624Z,191
2022-09-20T12:59:21.873Z,196
2022-09-20T13:00:38.113Z,196
2022-09-20T13:01:54.349Z,191
2022-09-20T13:03:10.600Z,196
2022-09-20T13:04:26.838Z,219
2022-09-20T13:05:43.081Z,253
2022-09-20T13:06:58.330Z,326
2022-09-20T13:09:30.807Z,281
2022-09-20T13:12:03.294Z,258
2022-09-20T13:13:19.541Z,225
2022-09-20T13:14:35.774Z,208
2022-09-20T13:15:52.015Z,202
2022-09-20T13:17:07.278Z,219
2022-09-20T13:18:23.524Z,219
2022-09-20T13:19:39.758Z,213
2022-09-20T13:20:55.990Z,208
2022-09-20T13:22:12.242Z,213
2022-09-20T13:23:28.485Z,202
2022-09-20T13:24:44.716Z,185
2022-09-20T13:26:00.947Z,185
2022-09-20T13:27:17.183Z,191
2022-09-20T13:28:33.439Z,185
2022-09-20T13:29:49.667Z,185
2022-09-20T13:31:05.915Z,191
2022-09-20T13:32:22.148Z,208
2022-09-20T13:33:37.411Z,185
2022-09-20T13:36:09.888Z,168
2022-09-20T13:37:26.139Z,168
2022-09-20T13:38:41.387Z,174
2022-09-20T13:39:56.645Z,168
2022-09-20T13:41:12.897Z,174
2022-09-20T13:42:29.134Z,174
2022-09-20T13:43:45.376Z,174
2022-09-20T13:45:01.612Z,180
2022-09-20T13:46:17.857Z,185
2022-09-20T13:47:34.083Z,196
2022-09-20T13:48:50.329Z,213
2022-09-20T13:50:06.564Z,230
2022-09-20T13:51:22.800Z,241
2022-09-20T13:52:38.062Z,264
2022-09-20T13:53:53.330Z,270
2022-09-20T13:55:09.571Z,253
2022-09-20T13:56:25.816Z,253
2022-09-20T13:57:42.039Z,236
2022-09-20T13:58:58.280Z,208
2022-09-20T14:00:14.536Z,196
2022-09-20T14:01:30.765Z,191
2022-09-20T14:02:47.014Z,174
2022-09-20T14:04:03.243Z,174
2022-09-20T14:05:19.486Z,174
2022-09-20T14:06:35.732Z,168
2022-09-20T14:07:51.974Z,185
2022-09-20T14:09:08.202Z,180
2022-09-20T14:10:23.458Z,168
2022-09-20T14:11:39.696Z,168
2022-09-20T14:12:55.948Z,163
2022-09-20T14:14:12.193Z,157
2022-09-20T14:15:28.425Z,151
2022-09-20T14:16:44.657Z,146
2022-09-20T14:18:00.905Z,146
2022-09-20T14:19:17.155Z,146
2022-09-20T14:20:33.392Z,146
2022-09-20T14:21:49.623Z,151
2022-09-20T14:23:05.870Z,157
2022-09-20T14:25:38.354Z,174
2022-09-20T14:26:53.607Z,185
2022-09-20T14:28:09.839Z,196
2022-09-20T14:29:26.093Z,213
2022-09-20T14:30:42.314Z,225
2022-09-20T14:33:14.798Z,219
2022-09-20T14:34:31.041Z,202
2022-09-20T14:35:47.284Z,202
2022-09-20T14:37:03.514Z,196
2022-09-20T14:38:19.772Z,168
2022-09-20T14:40:52.234Z,140
2022-09-20T14:42:07.510Z,140
2022-09-20T14:43:23.752Z,140
2022-09-20T14:44:38.997Z,151
2022-09-20T14:45:55.234Z,157
2022-09-20T14:47:11.492Z,157
2022-09-20T14:48:27.718Z,151
2022-09-20T14:49:43.954Z,151
2022-09-20T14:51:00.192Z,151
2022-09-20T14:52:16.434Z,151
2022-09-20T14:53:32.684Z,151
2022-09-20T14:54:48.914Z,151
2022-09-20T14:56:04.191Z,151
2022-09-20T14:58:35.676Z,140
2022-09-20T14:59:51.926Z,140
2022-09-20T15:01:08.156Z,146
2022-09-20T15:03:40.643Z,135
2022-09-20T15:04:56.882Z,129
2022-09-20T15:06:13.000Z,135
2022-09-20T15:07:29.363Z,140
2022-09-20T15:08:45.598Z,140
2022-09-20T15:10:01.852Z,140
2022-09-20T15:11:18.078Z,140
2022-09-20T15:12:34.312Z,140
2022-09-20T15:13:49.573Z,140
2022-09-20T15:15:05.815Z,140
2022-09-20T15:16:22.054Z,140
2022-09-20T15:17:38.295Z,140
2022-09-20T15:18:54.546Z,140
2022-09-20T15:20:10.781Z,135
2022-09-20T15:21:27.026Z,135
2022-09-20T15:22:43.248Z,135
2022-09-20T15:23:59.499Z,135
2022-09-20T15:25:15.736Z,135
2022-09-20T15:26:31.982Z,135
2022-09-20T15:27:48.221Z,135
2022-09-20T15:29:04.461Z,135
2022-09-20T15:30:20.691Z,135
2022-09-20T15:31:35.947Z,129
2022-09-20T15:32:52.194Z,129
2022-09-20T15:34:08.440Z,129
2022-09-20T15:35:24.684Z,129
2022-09-20T15:36:40.911Z,129
2022-09-20T15:37:57.156Z,129
2022-09-20T15:39:13.403Z,123
2022-09-20T15:41:45.871Z,123
2022-09-20T15:43:02.122Z,123
2022-09-20T15:44:18.361Z,123
2022-09-20T15:45:34.595Z,123
2022-09-20T15:46:50.838Z,123
2022-09-20T15:49:22.330Z,118
2022-09-20T15:50:38.570Z,118
2022-09-20T15:51:54.805Z,118
2022-09-20T15:53:11.051Z,118
2022-09-20T15:54:27.282Z,112
2022-09-20T15:56:59.768Z,112
2022-09-20T15:58:15.025Z,112
2022-09-20T15:59:30.289Z,106
2022-09-20T16:00:46.522Z,106
2022-09-20T16:02:02.768Z,106
2022-09-20T16:03:19.010Z,106
2022-09-20T16:04:35.242Z,106
2022-09-20T16:05:51.484Z,101
2022-09-20T16:07:07.736Z,101
2022-09-20T16:08:23.960Z,101
2022-09-20T16:09:40.213Z,101
2022-09-20T16:12:12.681Z,101
2022-09-20T16:13:28.941Z,95
2022-09-20T16:14:45.177Z,95
2022-09-20T16:16:00.420Z,95
2022-09-20T16:18:32.916Z,95
2022-09-20T16:19:48.174Z,90
2022-09-20T16:21:04.403Z,90
2022-09-20T16:22:19.674Z,90
2022-09-20T16:23:35.903Z,90
2022-09-20T16:24:52.134Z,84
2022-09-20T16:26:08.386Z,84
2022-09-20T16:27:24.619Z,84
2022-09-20T16:28:40.854Z,84
2022-09-20T16:29:57.114Z,78
2022-09-20T16:31:13.350Z,78
2022-09-20T16:32:29.593Z,78
2022-09-20T16:35:01.079Z,73
2022-09-20T16:36:16.340Z,73
2022-09-20T16:37:32.582Z,73
2022-09-20T16:38:48.822Z,67
2022-09-20T16:40:05.053Z,67
2022-09-20T16:41:21.294Z,67
2022-09-20T16:42:37.544Z,67
2022-09-20T16:45:10.021Z,61
2022-09-20T16:46:26.255Z,61
2022-09-20T16:47:42.501Z,61
2022-09-20T16:48:58.735Z,56
2022-09-20T16:50:14.976Z,56
2022-09-20T16:51:31.222Z,56
2022-09-20T16:52:46.482Z,50
2022-09-20T16:54:02.711Z,50
2022-09-20T16:55:18.966Z,45
2022-09-20T16:57:51.445Z,39
2022-09-20T16:59:07.677Z,39
2022-09-20T17:00:23.919Z,39
2022-09-20T17:01:40.166Z,33
2022-09-20T17:02:56.410Z,33
2022-09-20T17:04:12.643Z,28
2022-09-20T17:05:28.877Z,28
2022-09-20T17:06:45.113Z,22
2022-09-20T17:08:01.353Z,16
2022-09-20T17:09:16.608Z,11
2022-09-20T17:10:32.849Z,11
2022-09-20T17:11:48.114Z,5
2022-09-20T17:13:04.357Z,5
2022-09-20T17:14:19.622Z,5
2022-09-20T17:15:35.852Z,5
2022-09-20T17:16:52.102Z,5
2022-09-20T17:18:08.345Z,0
2022-09-20T17:19:24.572Z,0
2022-09-20T17:20:40.813Z,0
2022-09-20T17:21:57.058Z,0
2022-09-20T17:23:13.300Z,0
2022-09-20T17:24:29.534Z,0
2022-09-20T17:25:44.807Z,0
2022-09-20T17:28:16.287Z,0
2022-09-20T17:29:32.536Z,0
2022-09-20T17:30:48.772Z,0
2022-09-20T17:32:04.038Z,0
2022-09-20T17:33:20.284Z,0
2022-09-20T17:35:52.751Z,0
2022-09-20T17:37:09.002Z,0
2022-09-20T17:38:25.235Z,0
2022-09-20T17:39:41.482Z,0
2022-09-20T17:40:57.722Z,0
2022-09-20T17:42:13.954Z,0
2022-09-20T17:43:30.207Z,0
2022-09-20T17:44:46.448Z,0
2022-09-20T17:46:02.686Z,0
2022-09-20T17:47:18.920Z,0
2022-09-20T17:48:34.238Z,0
2022-09-20T17:51:06.826Z,0
2022-09-20T17:52:22.126Z,0
2022-09-20T17:53:37.446Z,0
2022-09-20T17:54:53.732Z,0
2022-09-20T17:56:10.029Z,0
2022-09-20T17:57:26.335Z,0
2022-09-20T17:58:42.629Z,0
2022-09-20T18:01:15.210Z,0
2022-09-20T18:02:31.493Z,0
2022-09-20T18:03:47.786Z,0
2022-09-20T18:06:20.379Z,0
2022-09-20T18:07:36.673Z,0
2022-09-20T18:08:51.998Z,0
2022-09-20T18:10:07.309Z,0
2022-09-20T18:11:23.591Z,0
2022-09-20T18:13:56.180Z,0
2022-09-20T18:15:12.481Z,0
2022-09-20T18:16:28.767Z,0
2022-09-20T18:17:45.061Z,0
2022-09-20T18:19:01.367Z,0
2022-09-20T18:21:33.945Z,0
2022-09-20T18:22:50.239Z,0
2022-09-20T18:24:06.542Z,0
2022-09-20T18:25:22.823Z,0
2022-09-20T18:26:38.140Z,0
2022-09-20T18:29:10.719Z,0
2022-09-20T18:30:27.033Z,0
2022-09-20T18:31:43.311Z,0
2022-09-20T18:32:59.619Z,0
2022-09-20T18:34:15.903Z,0
2022-09-20T18:36:48.484Z,0
2022-09-20T18:38:04.782Z,0
2022-09-20T18:39:21.082Z,0
2022-09-20T18:40:37.371Z,0
2022-09-20T18:41:53.672Z,0
2022-09-20T18:44:25.275Z,0
2022-09-20T18:46:57.863Z,0
2022-09-20T18:48:14.157Z,0
2022-09-20T18:49:30.445Z,0
2022-09-20T18:52:03.040Z,0
2022-09-20T18:53:19.330Z,0
2022-09-20T18:54:35.629Z,0
2022-09-20T18:55:51.920Z,0
2022-09-20T18:57:08.205Z,0
2022-09-20T18:59:40.799Z,0
2022-09-20T19:00:56.122Z,0
2022-09-20T19:02:12.418Z,0
2022-09-20T19:03:28.696Z,0
2022-09-20T19:04:44.989Z,0
2022-09-20T19:07:17.576Z,0
2022-09-20T19:08:33.882Z,0
2022-09-20T19:09:50.178Z,0
2022-09-20T19:11:06.474Z,0
2022-09-20T19:12:22.760Z,0
2022-09-20T19:14:55.340Z,0
2022-09-20T19:16:11.653Z,0
2022-09-20T19:17:26.949Z,0
2022-09-20T19:18:43.239Z,0
2022-09-20T19:19:59.545Z,0
2022-09-20T19:22:32.120Z,0
2022-09-20T19:23:48.429Z,0
2022-09-20T19:25:04.720Z,0
2022-09-20T19:26:21.024Z,0
2022-09-20T19:27:37.313Z,0
2022-09-20T19:28:53.610Z,0
2022-09-20T19:30:09.896Z,0
2022-09-20T19:31:26.189Z,0
2022-09-20T19:32:42.489Z,0
2022-09-20T19:33:57.804Z,0
2022-09-20T19:35:14.098Z,0
2022-09-20T19:37:46.682Z,0
2022-09-20T19:39:02.968Z,0
2022-09-20T19:40:19.256Z,0
2022-09-20T19:41:35.570Z,0
2022-09-20T19:42:51.847Z,0
2022-09-20T19:44:08.157Z,0
2022-09-20T19:45:24.436Z,0
2022-09-20T19:46:40.740Z,0
2022-09-20T19:47:57.033Z,0
2022-09-20T19:49:12.337Z,0
2022-09-20T19:50:28.646Z,0
2022-09-20T19:51:43.945Z,0
2022-09-20T19:53:00.237Z,0
2022-09-20T19:54:16.542Z,0
2022-09-20T19:55:32.837Z,0
2022-09-20T19:56:49.132Z,0